Altonah, Utah
Current Conditions -  °F | °C
As of 7:53 AM on Wednesday 22 Oct 2014 (Local Time) from KVEL Reporting Station
Overcast Overcast  
Wind Chill: 39°   Ceiling: 3800
Heat Index: 42°   Visibility: 10mi
Dew Point: 37°   Wind: 5mph
Humidity: 82%   Direction: 300°WNW
Pressure: 30.15"   Gusts: NA
Location:  40.4°N, 110.29°W
Report Text: KVEL 221353Z AUTO 30004KT 10SM OVC038 06/03 A3015 RMK AO2 SLP189 T00560028
Loading
Personal Weather Stations






























Interactive Weather Map New forecast layout! Learn more

10-Day Weather Forecast

Advertisements
Track Severe Weather on mobile